Rothsville, Pennsylvania
Current Conditions -  °F | °C
As of 10:53 AM on Wednesday 28 Jan 2015 (Local Time) from KLNS Reporting Station
Clear Clear  
Wind Chill:   Ceiling: Unl
Heat Index: 23°   Visibility: 10mi
Dew Point:   Wind: 18mph
Humidity: 42%   Direction: 320°NW
Pressure: 30.17"   Gusts: 26mph
Location:  40.1769°N, 76.295°W
Report Text: KLNS 281553Z 32016G23KT 10SM CLR M05/M16 A3017 RMK AO2 PK WND 31027/1455 SLP222 T10501161
Loading
Personal Weather Stations






























Interactive Weather Map New forecast layout! Learn more

10-Day Weather Forecast

Advertisements
Track Severe Weather on mobile